Stations météo

réclame
Mon MeteoGroup
Carlsfeld, Allemagne (10574): Température de l'air & dewpoint: 19.09.2018 09:00:00 - 25.09.2018 09:00:00 (CEST)Carlsfeld, Allemagne (10574): Température de l'air 5cm & Température de l'air -5cm: 19.09.2018 09:00:00 - 25.09.2018 09:00:00 (CEST)Carlsfeld, Allemagne (10574): Température de l'air -20cm & Température de l'air -100cm: 19.09.2018 09:00:00 - 25.09.2018 09:00:00 (CEST)Carlsfeld, Allemagne (10574): Vitesse du vent & gusts: 19.09.2018 09:00:00 - 25.09.2018 09:00:00 (CEST)Carlsfeld, Allemagne (10574): Direction du vent: 19.09.2018 09:00:00 - 25.09.2018 09:00:00 (CEST)Carlsfeld, Allemagne (10574): visibility: 19.09.2018 09:00:00 - 25.09.2018 09:00:00 (CEST)Carlsfeld, Allemagne (10574): Ensoleillement: 19.09.2018 09:00:00 - 25.09.2018 09:00:00 (CEST)Carlsfeld, Allemagne (10574): Quantités de précipitations: 19.09.2018 09:00:00 - 25.09.2018 09:00:00 (CEST)
Date & Time tt [°C] td [°C] tt 5cm [°C] tt -5cm [°C] tt -20cm [°C] tt -100cm [°C] ff [km/h] ff [knt] fx [km/h] fx [knt] dd vv [km] sd [min] rr [mm]
25.09.2018 09:00:00 1,6 1,0 2,1 5,4 8,5 13,7 4 2 25 14 NNW 15 0 0,0
25.09.2018 08:00:00 1,4 1,1 1,9 5,1 8,6 13,7 6 4 22 12 N 11 0 0,0
25.09.2018 07:00:00 1,4 1,1 1,6 5,2 8,7 13,8 6 3 22 12 N 0,8 0 0,0
25.09.2018 06:00:00 1,4 1,0 1,6 5,2 8,9 13,8 8 4 22 12 NNW 2,6 0 0,0
25.09.2018 05:00:00 1,5 1,0 1,7 5,3 9,0 13,8 7 4 32 17 NNW 18 0 0,0
25.09.2018 04:00:00 1,6 1,3 1,8 5,5 9,1 13,8 9 5 31 17 NNW 6 0 0,0
25.09.2018 03:00:00 1,9 1,5 2,0 5,7 9,3 13,8 8 5 33 18 NNW 9 0 0,0
25.09.2018 02:00:00 2,1 1,9 2,3 5,9 9,4 13,9 11 6 26 14 NW 2,1 0 0,0
25.09.2018 01:00:00 2,0 1,6 2,1 6,1 9,6 13,9 8 4 34 18 NW 11 0 0,0
25.09.2018 00:00:00 2,5 2,2 2,7 6,4 9,7 13,9 9 5 27 15 NNW 1,1 0 0,0
24.09.2018 23:00:00 2,8 2,4 3,0 6,6 9,9 13,9 9 5 41 22 NNW 11 0 0,0
24.09.2018 22:00:00 3,0 2,7 3,2 6,8 10,1 13,9 8 4 28 15 NNW 11 0 0,3
24.09.2018 21:00:00 3,1 2,7 3,3 7,1 10,3 14,0 10 5 24 13 NW 5 0 0,1
24.09.2018 20:00:00 2,7 2,4 3,0 7,4 10,5 14,0 6 4 34 19 NW 14 0 1,6
24.09.2018 19:00:00 2,7 2,2 3,1 8,1 10,6 14,0 5 3 25 14 NNW 32 0 1,3
24.09.2018 18:00:00 2,7 1,8 2,6 9,4 10,6 14,0 9 5 34 18 N 2,9 0 1,8
24.09.2018 17:00:00 5,2 2,7 5,7 10,9 10,4 14,0 8 4 24 13 WNW 60 9 0,0
24.09.2018 16:00:00 5,6 2,7 8,0 11,4 10,1 14,0 8 4 31 17 NW 59 23 0,0
24.09.2018 15:00:00 5,6 2,6 6,4 11,2 9,8 14,1 10 5 31 17 NW 49 36 0,3
24.09.2018 14:00:00 5,4 3,0 6,4 10,5 9,6 14,1 12 7 41 22 NNW 42 34 0,3
24.09.2018 13:00:00 4,9 3,2 5,4 8,7 9,5 14,1 10 5 41 22 NNW 27 13 0,6
24.09.2018 12:00:00 4,8 3,6 6,1 8,0 9,5 14,1 9 5 41 22 NW 36 12 0,0
24.09.2018 11:00:00 3,1 2,7 4,0 6,5 9,6 14,1 8 5 35 19 NW 19 0 0,9
24.09.2018 10:00:00 3,0 2,6 3,3 6,3 9,7 14,1 9 5 44 24 NNW 20 0 0,7
24.09.2018 09:00:00 2,9 2,6 3,2 6,3 9,9 14,1 11 6 40 21 NW 4,5 0 0,2
24.09.2018 08:00:00 2,9 2,6 3,0 6,3 10,0 14,2 10 5 46 25 NW 0,8 0 0,1
24.09.2018 07:00:00 2,9 2,6 3,1 6,4 10,2 14,2 13 7 39 21 NW 12 0 1,3
24.09.2018 06:00:00 3,0 2,7 3,0 6,7 10,4 14,2 11 6 35 19 NW 1,5 0 0,2
24.09.2018 05:00:00 3,1 2,9 3,3 6,8 10,6 14,2 10 5 34 19 NW 1,2 0 0,0
24.09.2018 04:00:00 3,1 3,0 3,3 6,9 10,8 14,2 10 5 29 16 NW 0,2 0 0,5
24.09.2018 03:00:00 3,1 2,9 3,3 7,1 11,0 14,2 10 5 39 21 NW 0,5 0 0,0
24.09.2018 02:00:00 3,0 2,7 3,2 7,3 11,3 14,2 11 6 36 20 NNW 4,0 0 0,1
24.09.2018 01:00:00 3,0 2,7 3,3 7,6 11,6 14,2 12 7 42 23 NNW 2,2 0 1,6
24.09.2018 00:00:00 3,2 2,7 3,3 8,3 12,0 14,2 11 6 43 23 N 4,0 0 3,8
23.09.2018 23:00:00 4,3 3,8 4,4 9,4 12,3 14,2 11 6 53 28 N 1,5 0 3,4
23.09.2018 22:00:00 6,2 5,7 6,1 10,6 12,4 14,2 13 7 39 21 NNW 1,4 0 2,4
23.09.2018 21:00:00 7,7 7,2 7,6 11,6 12,5 14,2 10 6 45 25 NNW 0,8 0 1,8
23.09.2018 20:00:00 11,5 10,8 11,0 12,1 12,5 14,2 14 7 36 19 W 70 0 3,6
23.09.2018 19:00:00 11,9 11,3 11,7 12,3 12,6 14,1 11 6 62 33 WNW 1,6 0 14,6
23.09.2018 18:00:00 14,4 13,8 14,1 12,3 12,0 14,4 23 13 60 32 WSW 47 0 0,1
23.09.2018 17:00:00 13,1 13,0 13,1 11,9 12,0 14,4 21 11 44 24 WSW 0,8 0 0,9
23.09.2018 16:00:00 10,7 10,5 11,0 11,5 11,9 14,4 13 7 27 15 SSW 2,4 0 0,8
23.09.2018 15:00:00 10,0 9,6 10,4 11,3 11,8 14,4 14 8 33 18 SSW 2,5 0 1,7
23.09.2018 14:00:00 9,2 8,8 9,6 10,8 11,7 14,4 14 8 28 15 SW 4,0 0 1,0
23.09.2018 13:00:00 8,5 8,1 9,0 10,5 11,7 14,5 14 8 28 15 SW 2,7 0 1,0
23.09.2018 12:00:00 7,5 7,2 8,0 10,1 11,7 14,5 12 7 28 15 SW 3,4 0 0,4
23.09.2018 11:00:00 6,9 6,6 7,6 9,8 11,7 14,5 11 6 29 16 SSW 4,5 0 0,5
23.09.2018 10:00:00 6,6 6,2 7,5 9,3 11,7 14,5 14 7 32 17 SSW 2,8 0 0,2
23.09.2018 09:00:00 6,1 5,5 6,5 8,7 11,8 14,5 13 7 30 16 SW 4,5 0 0,6
23.09.2018 08:00:00 5,9 5,0 5,8 8,5 12,0 14,5 13 7 31 17 SW 11 0 0,2
23.09.2018 07:00:00 5,9 4,9 5,6 8,6 12,1 14,5 9 5 23 12 SW 35 0 0,0
23.09.2018 06:00:00 5,8 5,0 5,7 8,7 12,2 14,5 10 5 21 12 WSW 18 0 0,2
23.09.2018 05:00:00 5,9 4,7 5,6 8,8 12,4 14,5 9 5 30 16 WSW 23 0 0,0
23.09.2018 04:00:00 6,0 4,5 5,6 9,0 12,6 14,5 9 5 23 13 W 29 0 0,1
23.09.2018 03:00:00 6,0 4,7 5,6 9,1 12,8 14,5 10 5 20 11 W 29 0 0,0
23.09.2018 02:00:00 6,0 4,7 5,6 9,3 12,9 14,5 9 5 26 14 W 13 0 0,1
23.09.2018 01:00:00 6,4 4,7 5,9 9,6 13,1 14,5 13 7 29 16 W 14 0 0,3
23.09.2018 00:00:00 7,9 2,5 7,3 9,9 13,3 14,5 14 8 25 14 W 19 0 0,0
22.09.2018 23:00:00 7,7 2,9 7,4 10,2 13,6 14,5 10 6 20 11 W 70 0 0,0
22.09.2018 22:00:00 7,6 3,9 6,3 10,6 13,8 14,5 10 5 34 19 W 48 0 0,0
22.09.2018 21:00:00 8,8 3,3 8,3 11,1 14,0 14,5 15 8 27 14 WSW 58 0 0,0
22.09.2018 20:00:00 9,0 3,1 8,5 11,7 14,1 14,5 14 7 27 15 W 70 0 0,0
22.09.2018 19:00:00 9,4 3,1 8,7 12,7 14,1 14,5 12 7 30 16 W 70 0 0,0
22.09.2018 18:00:00 10,0 2,4 9,9 13,8 14,1 14,5 11 6 29 16 W 70 0 0,0
22.09.2018 17:00:00 10,4 1,1 11,0 14,8 13,9 14,5 19 11 37 20 W 70 11 0,0
22.09.2018 16:00:00 10,7 1,9 12,0 15,4 13,7 14,5 19 10 34 18 W 70 39 0,0
22.09.2018 15:00:00 10,7 1,6 12,1 14,8 13,4 14,5 19 11 35 19 W 43 31 0,0
22.09.2018 14:00:00 9,8 2,6 11,2 14,6 13,1 14,5 14 7 33 18 W 59 17 0,0
22.09.2018 13:00:00 10,1 3,0 13,7 14,1 12,9 14,5 14 7 35 19 WNW 40 44 0,0
22.09.2018 12:00:00 9,8 4,9 13,9 12,4 12,7 14,5 14 8 39 21 W 40 40 0,0
22.09.2018 11:00:00 7,7 4,2 9,3 10,8 12,7 14,5 13 7 32 17 W 48 16 0,0
22.09.2018 10:00:00 6,9 3,8 7,6 9,5 12,9 14,5 16 9 34 19 W 55 14 0,0
22.09.2018 09:00:00 6,5 3,9 7,5 8,3 13,1 14,5 17 9 39 21 W 43 59 0,0
22.09.2018 08:00:00 5,2 3,4 5,0 7,5 13,5 14,5 18 10 33 18 W 39 33 0,0
22.09.2018 07:00:00 4,9 3,4 3,7 7,7 13,8 14,5 16 9 36 19 W 49 0 0,0
22.09.2018 06:00:00 5,2 3,7 4,1 8,1 14,2 14,5 16 9 29 16 W 50 0 0,0
22.09.2018 05:00:00 5,3 3,8 4,1 8,5 14,6 14,5 15 8 34 18 W 49 0 0,0
22.09.2018 04:00:00 5,2 3,6 3,8 9,2 15,0 14,5 12 7 30 16 W 67 0 0,0
22.09.2018 03:00:00 5,9 4,2 4,7 9,9 15,4 14,5 14 8 34 18 W 52 0 0,0
22.09.2018 02:00:00 6,1 4,7 5,1 10,7 15,8 14,5 12 6 28 15 W 38 0 0,0
22.09.2018 01:00:00 6,5 5,4 5,9 11,5 16,2 14,5 9 5 25 14 W 24 0 0,0
22.09.2018 00:00:00 6,8 5,8 6,3 12,2 16,6 14,5 10 5 31 17 WNW 25 0 0,0
21.09.2018 23:00:00 7,5 6,6 7,2 13,1 17,0 14,5 10 6 28 15 WNW 17 0 0,0
21.09.2018 22:00:00 8,2 7,3 7,9 14,2 17,3 14,5 10 6 32 18 WNW 28 0 0,0
21.09.2018 21:00:00 9,3 8,7 9,4 15,2 17,6 14,5 10 5 29 15 NW 6 0 1,1
21.09.2018 20:00:00 10,5 9,7 10,3 16,4 17,8 14,5 11 6 31 17 NW 1,8 0 0,4
21.09.2018 19:00:00 13,6 11,5 12,8 17,7 18,0 14,4 15 8 41 22 WSW 38 0 0,7
21.09.2018 18:00:00 15,3 13,4 14,5 19,3 17,9 14,4 10 6 36 19 W 21 0 1,3
21.09.2018 17:00:00 17,6 15,0 16,4 20,7 17,7 14,4 9 5 32 17 W 16 2 1,1
21.09.2018 16:00:00 21,8 11,8 24,1 22,0 17,4 14,4 17 9 39 21 SW 42 3 0,0
21.09.2018 15:00:00 21,9 11,3 22,6 22,8 16,9 14,4 19 10 42 23 WSW 39 37 0,0
21.09.2018 14:00:00 22,1 11,5 24,3 22,2 16,4 14,4 19 10 37 20 WSW 31 51 0,0
21.09.2018 13:00:00 20,5 10,2 22,0 20,7 16,0 14,4 16 9 39 21 SW 39 36 0,0
21.09.2018 12:00:00 21,3 11,2 24,8 19,5 15,7 14,4 18 10 41 22 SW 23 60 0,0
21.09.2018 11:00:00 19,4 11,4 21,3 17,3 15,5 14,4 19 11 37 20 SW 27 60 0,0
21.09.2018 10:00:00 18,6 11,2 20,5 15,5 15,5 14,4 17 9 44 24 SW 28 57 0,0
21.09.2018 09:00:00 17,0 11,3 17,0 14,0 15,6 14,4 19 10 36 20 SW 26 60 0,0
21.09.2018 08:00:00 15,8 10,8 15,5 13,1 15,8 14,4 15 8 34 18 SW 26 41 0,0
21.09.2018 07:00:00 14,9 10,8 13,0 13,1 16,0 14,4 12 7 26 14 SSW 26 0 0,0
21.09.2018 06:00:00 14,6 10,8 12,2 13,3 16,3 14,4 7 4 17 9 S 26 0 0,0
21.09.2018 05:00:00 14,9 10,9 12,1 13,7 16,5 14,4 8 4 16 9 SW 28 0 0,0
21.09.2018 04:00:00 15,1 11,1 12,1 14,1 16,7 14,4 9 5 16 9 SW 32 0 0,0
21.09.2018 03:00:00 15,8 11,4 13,5 14,5 17,0 14,4 9 5 16 9 SW 34 0 0,0
21.09.2018 02:00:00 16,6 11,6 14,2 15,0 17,2 14,4 8 5 25 13 SSW 33 0 0,0
21.09.2018 01:00:00 17,3 11,8 15,4 15,4 17,5 14,4 13 7 26 14 SW 33 0 0,0
21.09.2018 00:00:00 16,7 12,0 14,2 15,9 17,8 14,4 9 5 19 10 SW 31 0 0,0
20.09.2018 23:00:00 17,2 12,0 15,1 16,5 18,0 14,4 9 5 19 11 SW 37 0 0,0
20.09.2018 22:00:00 17,8 11,9 15,9 17,2 18,3 14,3 10 5 18 10 SW 37 0 0,0
20.09.2018 21:00:00 17,4 11,7 13,3 18,1 18,5 14,3 9 5 13 7 SW 40 0 0,0
20.09.2018 20:00:00 18,7 11,8 14,9 19,4 18,6 14,3 7 4 14 8 SW 39 0 0,0
20.09.2018 19:00:00 20,8 11,8 17,9 21,1 18,5 14,3 6 4 23 12 SW 43 41 0,0
20.09.2018 18:00:00 22,0 12,1 22,8 22,3 18,3 14,3 10 5 27 14 WSW 41 37 0,0
20.09.2018 17:00:00 22,8 11,0 24,8 23,5 17,9 14,3 11 6 33 18 SW 43 60 0,0
20.09.2018 16:00:00 22,9 11,6 25,3 23,9 17,4 14,3 15 8 31 17 SW 24 59 0,0
20.09.2018 15:00:00 22,7 12,3 26,2 23,6 16,8 14,3 14 7 34 18 SW 31 39 0,0
20.09.2018 14:00:00 22,7 12,2 25,9 23,5 16,2 14,3 16 9 34 18 SW 28 59 0,0
20.09.2018 13:00:00 22,6 12,1 27,5 21,3 15,8 14,3 14 8 29 16 WSW 25 34 0,0
20.09.2018 12:00:00 21,2 12,3 23,2 20,2 15,3 14,3 11 6 23 13 WSW 45 50 0,0
20.09.2018 11:00:00 21,1 12,4 24,6 18,2 15,1 14,3 13 7 26 14 SSW 31 60 0,0
20.09.2018 10:00:00 19,3 12,7 21,8 15,7 15,0 14,3 10 6 19 10 SSW 28 59 0,0
20.09.2018 09:00:00 17,1 12,6 18,3 13,8 15,1 14,3 10 5 18 10 SW 30 60 0,0
20.09.2018 08:00:00 15,1 11,7 15,0 12,7 15,3 14,3 9 5 18 10 SW 34 34 0,0
20.09.2018 07:00:00 13,9 11,2 11,8 12,6 15,5 14,3 9 5 17 9 SW 32 0 0,0
20.09.2018 06:00:00 14,0 11,4 11,7 12,8 15,7 14,3 7 4 16 9 SW 28 0 0,0
20.09.2018 05:00:00 13,7 11,2 11,1 13,1 15,9 14,3 6 3 14 7 SW 38 0 0,0
20.09.2018 04:00:00 14,1 11,5 11,7 13,5 16,2 14,3 8 4 16 9 SW 43 0 0,0
20.09.2018 03:00:00 14,4 11,6 12,2 13,8 16,4 14,3 9 5 16 9 SW 45 0 0,0
20.09.2018 02:00:00 14,2 11,4 11,0 14,2 16,7 14,3 8 4 16 8 SW 53 0 0,0
20.09.2018 01:00:00 15,3 11,7 12,4 14,7 16,9 14,3 7 4 18 10 SW 51 0 0,0
20.09.2018 00:00:00 15,7 11,8 13,6 15,2 17,2 14,3 8 5 18 10 WSW 53 0 0,0
19.09.2018 23:00:00 16,0 12,0 13,8 15,8 17,5 14,3 8 5 18 10 SW 30 0 0,0
19.09.2018 22:00:00 16,2 12,2 13,3 16,5 17,7 14,3 7 4 16 9 WSW 52 0 0,0
19.09.2018 21:00:00 15,9 11,7 10,4 17,6 17,9 14,2 6 4 13 7 SW 51 0 0,0
19.09.2018 20:00:00 17,6 11,2 10,9 19,1 17,9 14,2 6 3 15 8 SW 50 0 0,0
19.09.2018 19:00:00 20,5 11,5 16,8 20,9 17,8 14,2 5 3 15 8 SW 52 44 0,0
19.09.2018 18:00:00 22,0 11,2 22,3 22,4 17,4 14,2 9 5 23 12 WSW 55 60 0,0
19.09.2018 17:00:00 22,9 10,9 24,6 23,3 16,9 14,2 10 5 24 13 W 45 60 0,0
19.09.2018 16:00:00 23,1 10,2 25,7 23,6 16,3 14,2 11 6 22 12 W 40 60 0,0
19.09.2018 15:00:00 23,3 10,1 27,2 22,8 15,7 14,2 10 5 21 11 WSW 36 60 0,0
19.09.2018 14:00:00 22,0 10,2 25,9 20,7 15,3 14,2 11 6 22 12 SW 33 57 0,0
19.09.2018 13:00:00 18,5 10,5 19,4 18,1 15,0 14,2 9 5 19 11 W 70 0 0,0
19.09.2018 12:00:00 20,5 8,4 21,2 18,0 14,7 14,2 5 3 14 8 WSW 70 24 0,0
19.09.2018 11:00:00 18,9 10,4 20,8 15,6 14,6 14,2 7 4 16 9 W 66 10 0,0
19.09.2018 10:00:00 16,9 11,2 17,4 14,1 14,6 14,2 9 5 19 11 WNW 46 0 0,0
19.09.2018 09:00:00 14,9 11,7 14,9 13,0 14,7 14,2 7 4 14 8 W 27 0 0,0

tt = Température de l'air
td = dewpoint
tt 5cm = Température de l'air 5cm
tt -5cm = Température de l'air -5cm
tt -20cm = Température de l'air -20cm
tt -100cm = Température de l'air -100cm
ff = Vitesse du vent
fx = gusts
dd = Direction du vent
vv = visibility
sd = Ensoleillement
rr = Quantités de précipitations

stations d'obs. à proximité